Time;durP1;ratioP1;P1;durP2;ratioP2;P2;SDS_P1;SDS_P2;PMS_P1;PMS_P2;Temp;Humidity;BMP_temperature;BMP_pressure;BME280_temperature;BME280_humidity;BME280_pressure;Samples;Min_cycle;Max_cycle;Signal;HPM_P1;HPM_P2
2022/07/06 00:00:19;;;;;;;5.70;4.30;;;;;;;16.69;90.07;100715.75;84860;1326;24299;-73
2022/07/06 00:02:43;;;;;;;5.60;4.60;;;;;;;16.68;90.14;100713.34;84824;1326;22586;-73
2022/07/06 00:04:50;;;;;;;4.20;3.90;;;;;;;16.68;90.09;100711.08;84827;1329;22616;-73
2022/07/06 00:06:58;;;;;;;5.30;4.20;;;;;;;16.66;90.03;100712.23;84886;1327;22603;-73
2022/07/06 00:09:06;;;;;;;6.20;3.80;;;;;;;16.66;90.13;100710.67;84846;1326;22689;-73
2022/07/06 00:11:14;;;;;;;6.90;4.00;;;;;;;16.66;90.05;100709.08;84906;1329;22738;-74
2022/07/06 00:13:21;;;;;;;5.00;4.60;;;;;;;16.65;90.07;100708.77;84826;1321;24533;-74
2022/07/06 00:15:29;;;;;;;6.80;4.30;;;;;;;16.64;89.94;100708.34;84916;1328;22630;-73
2022/07/06 00:17:39;;;;;;;4.60;4.20;;;;;;;16.61;90.04;100706.77;84877;1329;22590;-73
2022/07/06 00:19:46;;;;;;;4.20;3.70;;;;;;;16.59;89.88;100702.80;84892;1328;22597;-73
2022/07/06 00:21:54;;;;;;;4.80;4.30;;;;;;;16.58;90.13;100701.11;84717;1326;22584;-73
2022/07/06 00:24:02;;;;;;;5.60;4.50;;;;;;;16.59;90.23;100702.24;84796;1324;22776;-73
2022/07/06 00:26:09;;;;;;;5.10;4.10;;;;;;;16.57;89.86;100701.87;84729;1326;22594;-74
2022/07/06 00:28:17;;;;;;;4.30;3.50;;;;;;;16.55;89.90;100700.95;84754;1325;22628;-74
2022/07/06 00:30:24;;;;;;;6.60;4.20;;;;;;;16.54;90.00;100699.57;84754;1326;22762;-75
2022/07/06 00:32:32;;;;;;;5.10;4.10;;;;;;;16.53;90.05;100698.73;84836;1328;24512;-74
2022/07/06 00:34:41;;;;;;;10.10;5.20;;;;;;;16.54;90.16;100696.77;84734;1325;24228;-74
2022/07/06 00:36:49;;;;;;;4.20;3.40;;;;;;;16.54;90.14;100694.66;84912;1326;22576;-73
2022/07/06 00:38:56;;;;;;;12.00;4.60;;;;;;;16.53;90.27;100694.18;84791;1326;22620;-73
2022/07/06 00:41:03;;;;;;;4.20;3.90;;;;;;;16.52;90.21;100693.70;84920;1327;22605;-73
2022/07/06 00:43:14;;;;;;;7.10;5.70;;;;;;;16.51;90.21;100685.29;84891;1326;25511;-73
2022/07/06 00:45:22;;;;;;;5.20;3.90;;;;;;;16.49;90.19;100680.27;84866;1323;22643;-72
2022/07/06 00:47:29;;;;;;;5.90;4.70;;;;;;;16.47;90.16;100679.31;84859;1327;22618;-73
2022/07/06 00:52:02;;;;;;;5.20;4.40;;;;;;;16.44;90.22;100677.42;84876;1325;22637;-73
2022/07/06 00:54:09;;;;;;;6.90;4.70;;;;;;;16.44;90.31;100677.06;84885;1324;22582;-73
2022/07/06 00:56:17;;;;;;;5.00;4.30;;;;;;;16.42;90.37;100675.23;84846;1324;22583;-73
2022/07/06 00:58:24;;;;;;;5.50;4.90;;;;;;;16.41;90.61;100671.27;84865;1326;25370;-73
2022/07/06 01:00:34;;;;;;;5.20;4.70;;;;;;;16.40;90.76;100667.61;84821;1323;22728;-73
2022/07/06 01:02:42;;;;;;;8.50;4.60;;;;;;;16.39;90.88;100664.84;84867;1328;25486;-73
2022/07/06 01:04:50;;;;;;;7.00;5.00;;;;;;;16.40;90.84;100664.10;84870;1326;22592;-73
2022/07/06 01:06:57;;;;;;;7.50;5.30;;;;;;;16.41;91.06;100658.77;84880;1329;24391;-74
2022/07/06 01:09:05;;;;;;;5.10;4.70;;;;;;;16.42;91.08;100651.27;84905;1327;22599;-73
2022/07/06 01:11:15;;;;;;;5.10;4.60;;;;;;;16.43;91.08;100653.87;84885;1326;22622;-73
2022/07/06 01:13:23;;;;;;;5.70;5.10;;;;;;;16.44;91.27;100654.36;84925;1327;22706;-73
2022/07/06 01:15:30;;;;;;;5.10;4.50;;;;;;;16.44;91.24;100653.77;84801;1326;22656;-73
2022/07/06 01:17:39;;;;;;;5.80;5.40;;;;;;;16.44;91.17;100656.48;84919;1327;25604;-73
2022/07/06 01:19:47;;;;;;;9.40;3.90;;;;;;;16.43;91.26;100657.60;84899;1327;25953;-74
2022/07/06 01:21:54;;;;;;;5.70;5.20;;;;;;;16.42;91.28;100656.73;84917;1327;25465;-73
2022/07/06 01:24:01;;;;;;;4.90;4.50;;;;;;;16.43;91.33;100657.94;84874;1326;22608;-73
2022/07/06 01:26:11;;;;;;;5.30;4.80;;;;;;;16.42;91.41;100660.09;84866;1323;22590;-73
2022/07/06 01:28:18;;;;;;;5.30;4.40;;;;;;;16.43;91.47;100656.89;84831;1324;25470;-73
2022/07/06 01:30:26;;;;;;;6.00;4.20;;;;;;;16.42;91.36;100655.70;84860;1326;22622;-73
2022/07/06 01:32:33;;;;;;;4.50;4.10;;;;;;;16.42;91.50;100657.80;84881;1329;22707;-73
2022/07/06 01:34:42;;;;;;;4.50;4.00;;;;;;;16.40;91.53;100656.67;84909;1329;24273;-73
2022/07/06 01:36:49;;;;;;;5.40;4.90;;;;;;;16.40;91.44;100656.33;84810;1321;22605;-73
2022/07/06 01:38:58;;;;;;;4.70;4.20;;;;;;;16.40;91.40;100655.64;84915;1325;22584;-73
2022/07/06 01:41:09;;;;;;;6.20;4.50;;;;;;;16.39;91.40;100657.95;84913;1327;22581;-73
2022/07/06 01:43:17;;;;;;;7.00;4.00;;;;;;;16.40;91.41;100655.48;84885;1326;22620;-73
2022/07/06 01:45:25;;;;;;;6.70;4.40;;;;;;;16.38;91.32;100653.60;84883;1329;22587;-72
2022/07/06 01:47:33;;;;;;;7.40;4.20;;;;;;;16.37;91.54;100655.80;84869;1326;22591;-73
2022/07/06 01:49:40;;;;;;;4.60;4.00;;;;;;;16.36;91.46;100657.13;84904;1328;24444;-73
2022/07/06 01:51:47;;;;;;;5.20;4.80;;;;;;;16.35;91.78;100653.30;84871;1325;22624;-73
2022/07/06 01:53:55;;;;;;;5.20;4.70;;;;;;;16.38;92.12;100652.77;84933;1327;22610;-73
2022/07/06 01:56:02;;;;;;;5.00;4.60;;;;;;;16.40;92.22;100649.11;84865;1327;22620;-73
2022/07/06 01:58:10;;;;;;;5.20;4.80;;;;;;;16.42;92.06;100649.38;84913;1324;22579;-73
2022/07/06 02:00:18;;;;;;;5.00;4.60;;;;;;;16.40;91.83;100643.84;84875;1320;24231;-74
2022/07/06 02:02:28;;;;;;;4.90;4.40;;;;;;;16.38;91.91;100644.50;84871;1321;23256;-73
2022/07/06 02:04:34;;;;;;;;;;;;;;;16.38;91.85;100640.64;84883;1326;22571;-73
2022/07/06 02:06:42;;;;;;;7.00;4.30;;;;;;;16.36;92.30;100634.23;84909;1323;25380;-73
2022/07/06 02:08:51;;;;;;;6.10;5.00;;;;;;;16.40;92.53;100637.17;84886;1326;25441;-73
2022/07/06 02:10:58;;;;;;;9.70;4.50;;;;;;;16.42;92.13;100632.84;84921;1328;24321;-73
2022/07/06 02:13:06;;;;;;;4.90;4.20;;;;;;;16.40;91.80;100638.38;84861;1326;22605;-73
2022/07/06 02:15:14;;;;;;;5.00;4.50;;;;;;;16.38;91.66;100639.72;84899;1328;22673;-73
2022/07/06 02:17:22;;;;;;;7.10;4.40;;;;;;;16.36;91.54;100634.94;84939;1326;22733;-73
2022/07/06 02:19:30;;;;;;;8.80;4.80;;;;;;;16.33;91.63;100635.96;84910;1326;23982;-73
2022/07/06 02:21:37;;;;;;;5.30;4.80;;;;;;;16.31;91.78;100635.55;84860;1326;22729;-73
2022/07/06 02:23:44;;;;;;;5.40;5.00;;;;;;;16.30;91.79;100635.29;84873;1325;22607;-73
2022/07/06 02:25:52;;;;;;;5.80;5.20;;;;;;;16.29;91.91;100637.62;84794;1326;22601;-73
2022/07/06 02:28:00;;;;;;;5.30;4.50;;;;;;;16.28;92.14;100639.43;84900;1328;22608;-72
2022/07/06 02:30:10;;;;;;;5.90;4.90;;;;;;;16.28;92.02;100641.02;84926;1326;22602;-73
2022/07/06 02:32:17;;;;;;;6.30;4.60;;;;;;;16.26;91.92;100643.79;84884;1326;22599;-72
2022/07/06 02:34:25;;;;;;;7.00;4.70;;;;;;;16.24;91.91;100644.94;84908;1328;22626;-72
2022/07/06 02:36:33;;;;;;;6.20;4.80;;;;;;;16.22;91.87;100648.37;84898;1329;22702;-73
2022/07/06 02:38:40;;;;;;;5.20;4.70;;;;;;;16.22;92.14;100648.02;84891;1328;24341;-73
2022/07/06 02:40:47;;;;;;;6.10;4.80;;;;;;;16.23;92.21;100648.33;84793;1325;22672;-72
2022/07/06 02:42:57;;;;;;;5.80;5.40;;;;;;;16.23;91.96;100649.39;84809;1326;22606;-72
2022/07/06 02:45:06;;;;;;;6.00;5.50;;;;;;;16.23;92.12;100653.11;84650;1328;254258;-73
2022/07/06 02:47:14;;;;;;;5.90;5.30;;;;;;;16.23;92.10;100648.90;84902;1327;22598;-74
2022/07/06 02:49:21;;;;;;;5.40;4.70;;;;;;;16.20;92.13;100649.92;84862;1322;22612;-74
2022/07/06 02:51:29;;;;;;;5.80;5.30;;;;;;;16.18;92.18;100652.11;84930;1328;22675;-73
2022/07/06 02:53:36;;;;;;;6.00;5.00;;;;;;;16.16;92.10;100646.77;84887;1325;22684;-73
2022/07/06 02:55:43;;;;;;;5.90;5.40;;;;;;;16.14;92.44;100644.61;84915;1325;22629;-73
2022/07/06 02:57:51;;;;;;;5.90;4.90;;;;;;;16.14;92.45;100641.82;84922;1327;22598;-74
2022/07/06 02:59:58;;;;;;;6.00;5.60;;;;;;;16.11;92.30;100641.11;84874;1329;24405;-73
2022/07/06 03:02:07;;;;;;;6.50;5.90;;;;;;;16.08;92.32;100638.11;84874;1328;22703;-73
2022/07/06 03:04:14;;;;;;;11.10;5.80;;;;;;;16.05;92.31;100636.70;84880;1328;25503;-73
2022/07/06 03:06:21;;;;;;;6.30;5.70;;;;;;;16.03;92.42;100638.94;84927;1328;22576;-73
2022/07/06 03:08:29;;;;;;;6.00;5.50;;;;;;;16.02;92.62;100641.48;84941;1327;22584;-73
2022/07/06 03:10:36;;;;;;;7.60;5.80;;;;;;;15.99;92.79;100636.81;84767;1326;25604;-72
2022/07/06 03:12:44;;;;;;;6.20;5.60;;;;;;;16.00;93.08;100639.23;84865;1327;22618;-73
2022/07/06 03:14:51;;;;;;;5.90;5.30;;;;;;;16.00;93.05;100640.31;84881;1327;22724;-73
2022/07/06 03:16:58;;;;;;;6.40;5.80;;;;;;;15.99;93.12;100633.32;84904;1327;24250;-73
2022/07/06 03:19:06;;;;;;;6.30;5.70;;;;;;;15.99;93.24;100630.82;84871;1329;25467;-73
2022/07/06 03:21:13;;;;;;;6.90;6.30;;;;;;;15.99;93.16;100625.73;84917;1323;22587;-73
2022/07/06 03:23:21;;;;;;;9.10;6.10;;;;;;;16.01;93.66;100619.87;84900;1329;22618;-74
2022/07/06 03:25:28;;;;;;;6.50;6.00;;;;;;;16.04;93.55;100625.48;84922;1328;24485;-73
2022/07/06 03:27:36;;;;;;;8.10;6.10;;;;;;;16.06;93.56;100629.80;84925;1328;22713;-73
2022/07/06 03:29:46;;;;;;;6.40;5.90;;;;;;;16.06;93.52;100624.33;84779;1327;24463;-74
2022/07/06 03:31:53;;;;;;;7.80;6.30;;;;;;;16.06;93.52;100625.20;84892;1325;22606;-73
2022/07/06 03:34:01;;;;;;;8.10;6.10;;;;;;;16.06;93.59;100626.08;84873;1329;25705;-73
2022/07/06 03:36:09;;;;;;;6.20;5.50;;;;;;;16.07;93.50;100625.33;84810;1324;22751;-73
2022/07/06 03:38:18;;;;;;;9.40;6.30;;;;;;;16.06;93.63;100628.00;84898;1325;22606;-72
2022/07/06 03:40:26;;;;;;;8.50;5.70;;;;;;;16.08;93.89;100625.13;84867;1327;25457;-73
2022/07/06 03:42:36;;;;;;;5.90;5.40;;;;;;;16.10;94.00;100621.63;84819;1325;22647;-72
2022/07/06 03:44:42;;;;;;;;;;;;;;;16.12;94.07;100620.12;84876;1327;22573;-73
2022/07/06 03:46:50;;;;;;;6.00;5.40;;;;;;;16.12;94.17;100619.06;84907;1327;22577;-73
2022/07/06 03:48:58;;;;;;;6.50;5.90;;;;;;;16.14;94.20;100619.96;84866;1326;25348;-73
2022/07/06 03:51:06;;;;;;;6.20;5.60;;;;;;;16.16;94.26;100620.05;84895;1325;22597;-73
2022/07/06 03:53:13;;;;;;;6.20;5.70;;;;;;;16.19;94.30;100620.95;84940;1324;25335;-73
2022/07/06 03:55:21;;;;;;;7.30;5.70;;;;;;;16.22;94.68;100619.88;84873;1327;22590;-73
2022/07/06 03:57:28;;;;;;;6.20;5.70;;;;;;;16.28;94.93;100618.49;84912;1327;22600;-73
2022/07/06 03:59:36;;;;;;;7.80;6.10;;;;;;;16.33;95.04;100619.42;84886;1329;22592;-73
2022/07/06 04:01:43;;;;;;;6.20;5.70;;;;;;;16.37;94.71;100619.55;84920;1326;22703;-74
2022/07/06 04:03:51;;;;;;;7.50;6.00;;;;;;;16.40;94.68;100618.30;84859;1322;23563;-72
2022/07/06 04:05:58;;;;;;;6.40;5.80;;;;;;;16.43;94.41;100614.77;84935;1328;22591;-73
2022/07/06 04:08:06;;;;;;;9.50;6.50;;;;;;;16.44;94.23;100609.29;84935;1324;23923;-73
2022/07/06 04:10:13;;;;;;;6.50;5.80;;;;;;;16.45;94.02;100614.48;84857;1326;22726;-73
2022/07/06 04:12:22;;;;;;;6.70;5.70;;;;;;;16.46;94.04;100614.27;84827;1324;22773;-73
2022/07/06 04:14:31;;;;;;;6.10;5.50;;;;;;;16.47;94.05;100605.92;84753;1326;23190;-73
2022/07/06 04:16:38;;;;;;;6.80;5.60;;;;;;;16.47;93.74;100604.89;84856;1326;22700;-73
2022/07/06 04:18:46;;;;;;;7.20;6.10;;;;;;;16.47;93.77;100606.43;84852;1321;22752;-73
2022/07/06 04:20:53;;;;;;;7.90;5.20;;;;;;;16.48;93.85;100603.73;84925;1320;22576;-72
2022/07/06 04:23:01;;;;;;;5.90;5.20;;;;;;;16.49;93.69;100604.58;84883;1326;24320;-72
2022/07/06 04:25:10;;;;;;;6.30;5.80;;;;;;;16.49;93.73;100606.51;84846;1324;22601;-73
2022/07/06 04:27:17;;;;;;;6.00;5.40;;;;;;;16.51;93.76;100609.92;84893;1325;22586;-72
2022/07/06 04:29:25;;;;;;;7.50;5.80;;;;;;;16.53;93.70;100607.88;84910;1324;22620;-73
2022/07/06 04:31:33;;;;;;;6.40;5.30;;;;;;;16.54;93.77;100605.35;84924;1324;22607;-73
2022/07/06 04:33:40;;;;;;;5.60;5.20;;;;;;;16.56;93.70;100604.35;84819;1326;22652;-72
2022/07/06 04:35:48;;;;;;;5.20;4.80;;;;;;;16.59;93.69;100604.50;84849;1322;22817;-74
2022/07/06 04:37:55;;;;;;;7.30;6.80;;;;;;;16.60;93.53;100609.05;84888;1324;24425;-72
2022/07/06 04:40:03;;;;;;;7.60;5.50;;;;;;;16.62;93.59;100609.66;84910;1326;22593;-73
2022/07/06 04:42:11;;;;;;;6.20;5.60;;;;;;;16.65;93.75;100608.02;84843;1329;22583;-72
2022/07/06 04:44:18;;;;;;;6.50;6.00;;;;;;;16.70;93.77;100608.46;84906;1323;22665;-73
2022/07/06 04:46:25;;;;;;;6.70;5.80;;;;;;;16.75;93.96;100606.93;84899;1324;22610;-73
2022/07/06 04:48:36;;;;;;;7.00;6.40;;;;;;;16.82;93.78;100603.55;84865;1325;24210;-73
2022/07/06 04:50:43;;;;;;;7.80;6.20;;;;;;;16.89;93.71;100598.70;84922;1327;22589;-73
2022/07/06 04:52:51;;;;;;;7.20;6.60;;;;;;;16.95;93.69;100598.30;84862;1326;22638;-72
2022/07/06 04:54:59;;;;;;;8.30;7.40;;;;;;;17.00;93.64;100599.77;84908;1319;22564;-73
2022/07/06 04:57:07;;;;;;;8.30;7.20;;;;;;;17.06;93.68;100602.23;84868;1327;23033;-71
2022/07/06 04:59:14;;;;;;;8.00;7.20;;;;;;;17.08;93.16;100600.52;84825;1326;22805;-72
2022/07/06 05:01:22;;;;;;;13.00;8.00;;;;;;;17.07;92.89;100597.41;84839;1322;22622;-73
2022/07/06 05:03:29;;;;;;;9.10;7.30;;;;;;;17.03;92.35;100600.31;84910;1326;22580;-72
2022/07/06 05:05:37;;;;;;;9.80;7.30;;;;;;;16.98;92.29;100602.52;84890;1327;22598;-73
2022/07/06 05:07:44;;;;;;;9.60;7.60;;;;;;;16.98;92.64;100604.47;84900;1325;25402;-73
2022/07/06 05:09:52;;;;;;;9.90;7.90;;;;;;;16.97;92.45;100604.91;84879;1329;25438;-73
2022/07/06 05:11:59;;;;;;;9.00;8.20;;;;;;;16.95;92.44;100604.70;84885;1324;22644;-73
2022/07/06 05:14:07;;;;;;;10.60;8.30;;;;;;;16.93;92.42;100606.39;84866;1327;22646;-73
2022/07/06 05:16:14;;;;;;;9.10;7.70;;;;;;;16.91;92.49;100605.06;84919;1323;22596;-73
2022/07/06 05:18:22;;;;;;;8.80;8.00;;;;;;;16.90;92.47;100606.74;84766;1325;22596;-73
2022/07/06 05:20:29;;;;;;;8.00;7.30;;;;;;;16.93;92.93;100603.23;84758;1327;22584;-73
2022/07/06 05:22:37;;;;;;;8.30;6.90;;;;;;;17.00;93.31;100595.55;84807;1321;22695;-73
2022/07/06 05:24:44;;;;;;;8.70;7.20;;;;;;;17.10;93.39;100595.83;84749;1325;22586;-73
2022/07/06 05:26:52;;;;;;;9.50;6.10;;;;;;;17.19;93.29;100602.17;84770;1324;22699;-73
2022/07/06 05:28:59;;;;;;;6.30;5.60;;;;;;;17.27;92.99;100605.14;84828;1326;22600;-73
2022/07/06 05:31:07;;;;;;;7.70;5.50;;;;;;;17.37;92.41;100600.00;84876;1325;22616;-73
2022/07/06 05:33:14;;;;;;;5.50;5.00;;;;;;;17.38;91.75;100605.86;84793;1326;22656;-72
2022/07/06 05:35:22;;;;;;;5.70;4.90;;;;;;;17.41;91.78;100603.58;84883;1328;25338;-72
2022/07/06 05:37:29;;;;;;;4.30;3.90;;;;;;;17.54;92.34;100603.86;84875;1327;26520;-73
2022/07/06 05:39:38;;;;;;;5.40;3.90;;;;;;;17.69;91.51;100605.52;84894;1322;22618;-73
2022/07/06 05:41:45;;;;;;;5.00;2.90;;;;;;;17.76;89.93;100602.81;84890;1326;22576;-72
2022/07/06 05:43:53;;;;;;;5.10;3.10;;;;;;;17.78;88.99;100602.66;84919;1322;22591;-73
2022/07/06 05:46:01;;;;;;;5.90;3.20;;;;;;;17.87;88.91;100610.58;84870;1329;23102;-73
2022/07/06 05:50:34;;;;;;;6.40;3.00;;;;;;;17.98;87.51;100613.92;84891;1325;25436;-73
2022/07/06 05:52:42;;;;;;;3.80;2.80;;;;;;;17.94;86.72;100612.61;84909;1326;22600;-73
2022/07/06 05:54:49;;;;;;;6.60;2.80;;;;;;;17.89;86.12;100611.47;84825;1322;23649;-73
2022/07/06 05:56:59;;;;;;;6.50;4.10;;;;;;;17.92;86.91;100607.06;84859;1322;25588;-73
2022/07/06 05:59:06;;;;;;;4.00;3.60;;;;;;;18.29;88.69;100609.92;84865;1328;22653;-73
2022/07/06 06:01:14;;;;;;;6.50;3.00;;;;;;;19.19;91.21;100617.42;84916;1327;22600;-73
2022/07/06 06:03:21;;;;;;;6.90;3.30;;;;;;;19.87;87.73;100620.36;84819;1326;22609;-72
2022/07/06 06:05:29;;;;;;;7.20;2.50;;;;;;;20.82;86.75;100622.19;84911;1326;25582;-73
2022/07/06 06:07:38;;;;;;;6.20;2.70;;;;;;;21.53;81.40;100617.80;84833;1325;22663;-73
2022/07/06 06:09:45;;;;;;;6.50;2.80;;;;;;;21.99;78.03;100622.34;84760;1326;24261;-73
2022/07/06 06:11:53;;;;;;;6.30;2.40;;;;;;;22.68;75.28;100619.28;84936;1325;25333;-73
2022/07/06 06:14:00;;;;;;;5.40;2.30;;;;;;;23.59;73.90;100621.88;84771;1322;22736;-73
2022/07/06 06:16:08;;;;;;;6.20;2.40;;;;;;;24.54;69.71;100622.37;84878;1326;25484;-73
2022/07/06 06:18:17;;;;;;;4.10;2.40;;;;;;;25.36;64.28;100619.43;84843;1327;22590;-73
2022/07/06 06:20:24;;;;;;;4.50;2.40;;;;;;;25.92;60.93;100618.50;84822;1326;22588;-73
2022/07/06 06:22:32;;;;;;;5.20;2.10;;;;;;;25.97;60.00;100620.14;84845;1326;24360;-73
2022/07/06 06:24:39;;;;;;;6.60;2.30;;;;;;;25.87;58.13;100616.70;84866;1325;22608;-73
2022/07/06 06:26:47;;;;;;;5.60;2.00;;;;;;;26.03;57.79;100616.71;84921;1326;22606;-74
2022/07/06 06:28:54;;;;;;;6.20;2.20;;;;;;;26.44;56.02;100618.71;84940;1326;22635;-74
2022/07/06 06:31:01;;;;;;;2.30;1.80;;;;;;;26.88;54.34;100618.33;84877;1325;23047;-74
2022/07/06 06:33:12;;;;;;;3.20;1.60;;;;;;;27.38;52.95;100616.48;84903;1325;22621;-74
2022/07/06 06:35:20;;;;;;;4.90;2.10;;;;;;;27.87;52.01;100622.83;84829;1326;22593;-74
2022/07/06 06:37:27;;;;;;;2.40;1.80;;;;;;;28.24;50.38;100626.52;84850;1324;22659;-74
2022/07/06 06:39:35;;;;;;;6.70;2.10;;;;;;;28.57;49.21;100628.48;84833;1325;22604;-74
2022/07/06 06:41:42;;;;;;;3.30;2.10;;;;;;;28.30;48.82;100624.80;84896;1325;22674;-74
2022/07/06 06:43:52;;;;;;;2.30;1.70;;;;;;;27.80;49.14;100625.70;84710;1325;22594;-74
2022/07/06 06:46:00;;;;;;;5.10;1.90;;;;;;;27.32;49.44;100626.63;84820;1325;22673;-74
2022/07/06 06:48:07;;;;;;;3.40;2.00;;;;;;;27.16;50.14;100630.30;84881;1321;22645;-73
2022/07/06 06:50:15;;;;;;;3.20;2.00;;;;;;;27.55;50.04;100626.55;84885;1326;22604;-74
2022/07/06 06:52:23;;;;;;;4.20;2.30;;;;;;;27.35;48.72;100626.85;84729;1326;22693;-74
2022/07/06 06:54:31;;;;;;;7.30;2.00;;;;;;;27.03;49.06;100630.05;84876;1325;24336;-74
2022/07/06 06:56:38;;;;;;;4.90;2.20;;;;;;;26.64;49.80;100628.48;84840;1325;22601;-74
2022/07/06 06:58:46;;;;;;;3.50;2.20;;;;;;;26.19;51.14;100630.14;84897;1328;22584;-74
2022/07/06 07:00:53;;;;;;;4.20;2.90;;;;;;;26.27;51.73;100628.95;84888;1325;22613;-74
2022/07/06 07:03:00;;;;;;;3.90;3.10;;;;;;;26.29;51.75;100625.55;84865;1326;24567;-74
2022/07/06 07:05:09;;;;;;;3.60;2.90;;;;;;;26.42;51.94;100628.19;84926;1318;22600;-74
2022/07/06 07:07:17;;;;;;;3.30;2.80;;;;;;;26.65;51.16;100624.91;84827;1326;22989;-74
2022/07/06 07:09:24;;;;;;;4.30;3.20;;;;;;;26.32;50.26;100625.18;84921;1328;25504;-74
2022/07/06 07:11:32;;;;;;;3.90;3.20;;;;;;;25.84;51.18;100623.91;84855;1326;22664;-73
2022/07/06 07:13:40;;;;;;;6.90;3.20;;;;;;;26.14;52.17;100620.94;84878;1326;25506;-74
2022/07/06 07:15:47;;;;;;;4.60;2.40;;;;;;;26.49;50.86;100623.17;84910;1325;25441;-74
2022/07/06 07:17:55;;;;;;;3.80;1.90;;;;;;;26.63;49.54;100624.39;84800;1326;22654;-73
2022/07/06 07:20:02;;;;;;;4.30;2.20;;;;;;;26.49;50.06;100628.39;84814;1324;22637;-74
2022/07/06 07:22:10;;;;;;;2.50;1.90;;;;;;;26.98;50.14;100625.54;84879;1329;25572;-74
2022/07/06 07:24:17;;;;;;;4.20;1.90;;;;;;;27.21;48.57;100625.27;84914;1326;22594;-74
2022/07/06 07:26:24;;;;;;;3.50;1.60;;;;;;;27.12;48.13;100627.52;84878;1329;22598;-74
2022/07/06 07:28:32;;;;;;;9.70;2.40;;;;;;;27.60;48.45;100629.02;84924;1321;22584;-74
2022/07/06 07:30:40;;;;;;;2.20;1.30;;;;;;;27.94;46.99;100626.22;84883;1326;22617;-75
2022/07/06 07:32:47;;;;;;;3.20;2.00;;;;;;;28.48;46.08;100625.41;84850;1325;22598;-73
2022/07/06 07:34:58;;;;;;;6.50;1.80;;;;;;;28.50;45.60;100627.70;84791;1325;22651;-74
2022/07/06 07:37:05;;;;;;;4.00;1.20;;;;;;;28.67;44.31;100631.83;84908;1319;22579;-74
2022/07/06 07:39:13;;;;;;;7.20;1.80;;;;;;;28.40;44.78;100627.55;84816;1327;22695;-74
2022/07/06 07:41:20;;;;;;;12.10;1.60;;;;;;;28.91;44.33;100629.55;84898;1326;22602;-74
2022/07/06 07:43:27;;;;;;;2.50;0.90;;;;;;;29.60;43.57;100624.52;84864;1321;22651;-73
2022/07/06 07:45:35;;;;;;;2.70;0.80;;;;;;;30.36;42.76;100632.27;84912;1320;25525;-74
2022/07/06 07:47:43;;;;;;;6.10;1.30;;;;;;;31.12;39.88;100633.59;84749;1326;22719;-75
2022/07/06 07:49:50;;;;;;;2.90;0.70;;;;;;;31.73;38.17;100638.27;84803;1322;22607;-73
2022/07/06 07:52:00;;;;;;;5.30;1.70;;;;;;;32.13;36.88;100637.77;84730;1326;22591;-73
2022/07/06 07:54:08;;;;;;;1.70;1.00;;;;;;;32.19;36.09;100639.21;84756;1323;24476;-73
2022/07/06 07:56:16;;;;;;;3.30;0.80;;;;;;;32.42;35.59;100636.29;84872;1329;25317;-73
2022/07/06 07:58:24;;;;;;;4.40;1.50;;;;;;;32.50;33.99;100639.59;84867;1322;22613;-74
2022/07/06 08:00:31;;;;;;;1.10;0.70;;;;;;;32.69;33.72;100642.27;84889;1321;23148;-73
2022/07/06 08:02:39;;;;;;;2.60;1.20;;;;;;;33.04;33.75;100643.73;84836;1321;25433;-74
2022/07/06 08:04:49;;;;;;;2.90;1.00;;;;;;;32.68;33.61;100641.89;84732;1325;22609;-73
2022/07/06 08:06:56;;;;;;;4.90;0.90;;;;;;;32.08;34.04;100642.39;84881;1323;22593;-74
2022/07/06 08:09:07;;;;;;;4.50;1.40;;;;;;;31.51;34.22;100641.14;84874;1325;22583;-74
2022/07/06 08:11:14;;;;;;;3.20;1.10;;;;;;;30.67;35.47;100638.86;84887;1308;22627;-74
2022/07/06 08:13:22;;;;;;;4.10;1.10;;;;;;;30.62;35.51;100634.56;84869;1322;24240;-73
2022/07/06 08:15:31;;;;;;;2.30;1.00;;;;;;;30.69;35.98;100636.45;84872;1318;22584;-73
2022/07/06 08:17:39;;;;;;;2.20;0.90;;;;;;;30.86;35.54;100635.72;84826;1325;22636;-74
2022/07/06 08:19:46;;;;;;;6.20;0.90;;;;;;;30.34;35.43;100631.38;84859;1325;25389;-74
2022/07/06 08:21:54;;;;;;;2.70;0.80;;;;;;;30.37;35.86;100635.59;84769;1326;22603;-74
2022/07/06 08:24:07;;;;;;;0.80;0.50;;;;;;;30.87;35.94;100630.54;84893;1324;22574;-74
2022/07/06 08:26:15;;;;;;;2.10;0.80;;;;;;;31.30;34.69;100635.37;84853;1324;22747;-73
2022/07/06 08:28:22;;;;;;;3.30;1.00;;;;;;;31.11;33.83;100638.94;84788;1326;22593;-73
2022/07/06 08:30:31;;;;;;;2.10;0.70;;;;;;;30.55;34.20;100635.71;84903;1323;22597;-73
2022/07/06 08:32:41;;;;;;;1.50;0.60;;;;;;;29.85;34.78;100633.55;84865;1326;22659;-74
2022/07/06 08:34:49;;;;;;;1.00;0.80;;;;;;;29.10;36.09;100629.65;84843;1321;22958;-73
2022/07/06 08:36:57;;;;;;;2.20;0.60;;;;;;;28.78;37.05;100629.55;84882;1327;22599;-72
2022/07/06 08:39:10;;;;;;;3.00;0.70;;;;;;;29.35;37.46;100625.20;84769;1324;22643;-73
2022/07/06 08:41:22;;;;;;;4.00;1.20;;;;;;;30.19;36.73;100622.16;84787;1323;22626;-73
2022/07/06 08:43:29;;;;;;;3.00;0.80;;;;;;;31.00;34.32;100622.89;84875;1323;22705;-73
2022/07/06 08:45:37;;;;;;;1.40;0.60;;;;;;;31.51;32.39;100621.87;84773;1325;22698;-73
2022/07/06 08:47:45;;;;;;;3.20;0.60;;;;;;;31.89;33.08;100622.23;84871;1322;22594;-73
2022/07/06 08:49:52;;;;;;;3.50;0.80;;;;;;;32.38;32.01;100622.24;84859;1325;22616;-73
2022/07/06 08:52:00;;;;;;;5.00;0.80;;;;;;;32.87;33.01;100618.26;84891;1322;22972;-73
2022/07/06 08:54:07;;;;;;;0.90;0.60;;;;;;;32.78;31.46;100624.02;84890;1326;22630;-73
2022/07/06 08:56:15;;;;;;;1.00;0.40;;;;;;;32.63;30.24;100633.10;84862;1325;22580;-72
2022/07/06 08:58:22;;;;;;;1.80;0.60;;;;;;;32.72;30.67;100633.38;84855;1323;22608;-72
2022/07/06 09:00:30;;;;;;;0.90;0.50;;;;;;;33.03;30.34;100637.10;84869;1325;22592;-73
2022/07/06 09:02:37;;;;;;;3.40;0.80;;;;;;;33.40;31.14;100640.41;84887;1324;22636;-73
2022/07/06 09:04:46;;;;;;;1.00;0.50;;;;;;;33.84;28.71;100637.03;84846;1319;22717;-73
2022/07/06 09:06:53;;;;;;;0.70;0.70;;;;;;;34.21;27.48;100636.65;84814;1324;24228;-74
2022/07/06 09:09:05;;;;;;;1.40;0.80;;;;;;;34.10;27.12;100635.62;84727;1326;22645;-74
2022/07/06 09:11:13;;;;;;;2.50;0.80;;;;;;;34.03;27.72;100631.72;84750;1321;22611;-74
2022/07/06 09:13:21;;;;;;;0.90;0.40;;;;;;;34.02;26.75;100632.55;84700;1322;22843;-73
2022/07/06 09:15:31;;;;;;;0.60;0.50;;;;;;;33.74;26.92;100633.36;84837;1324;22750;-73
2022/07/06 09:17:41;;;;;;;0.90;0.50;;;;;;;33.55;26.80;100637.37;84812;1326;22620;-73
2022/07/06 09:19:48;;;;;;;2.70;0.60;;;;;;;33.40;26.40;100633.45;84802;1326;25407;-73
2022/07/06 09:21:56;;;;;;;4.70;0.70;;;;;;;32.76;27.51;100628.96;84861;1325;25506;-72
2022/07/06 09:24:06;;;;;;;1.80;0.70;;;;;;;32.03;28.57;100624.98;84834;1324;24311;-74
2022/07/06 09:26:13;;;;;;;5.40;0.80;;;;;;;31.59;29.72;100623.27;84811;1321;24264;-73
2022/07/06 09:28:21;;;;;;;1.60;0.50;;;;;;;31.28;32.16;100622.48;84869;1326;24417;-74
2022/07/06 09:30:29;;;;;;;2.90;0.50;;;;;;;30.88;30.76;100624.58;84861;1322;24255;-72
2022/07/06 09:32:41;;;;;;;1.00;0.50;;;;;;;30.50;29.88;100624.11;84800;1326;25550;-73
2022/07/06 09:34:49;;;;;;;3.20;0.80;;;;;;;29.99;29.83;100621.05;84899;1317;22582;-74
2022/07/06 09:36:57;;;;;;;1.90;0.70;;;;;;;29.65;32.93;100621.45;84896;1327;25349;-73
2022/07/06 09:39:22;;;;;;;1.50;0.50;;;;;;;29.70;34.48;100614.77;84786;1322;22577;-72
2022/07/06 09:41:35;;;;;;;1.80;0.50;;;;;;;29.87;34.82;100612.25;84794;1325;22620;-73
2022/07/06 09:43:42;;;;;;;0.90;0.40;;;;;;;29.97;34.25;100616.30;84811;1324;22608;-71
2022/07/06 09:45:51;;;;;;;4.20;0.80;;;;;;;29.61;31.23;100616.13;84842;1321;22618;-71
2022/07/06 09:47:59;;;;;;;2.50;0.60;;;;;;;29.37;31.40;100617.05;84821;1326;22567;-71
2022/07/06 09:50:09;;;;;;;1.20;0.30;;;;;;;29.41;32.75;100619.45;84849;1327;22565;-73
2022/07/06 09:52:16;;;;;;;2.20;0.40;;;;;;;29.49;31.78;100622.70;84858;1324;22620;-72
2022/07/06 09:54:24;;;;;;;1.90;0.50;;;;;;;29.39;30.22;100615.23;84798;1325;22584;-73
2022/07/06 09:56:40;;;;;;;3.00;0.50;;;;;;;29.26;33.08;100615.21;84803;1321;22594;-72
2022/07/06 09:58:51;;;;;;;1.40;0.40;;;;;;;29.04;31.38;100617.52;84868;1326;22591;-74